Latest Weather Observations for Kuitpo

IDS60801

Issued at 9:02 am CDT Sunday 1 February 2015 (issued every 30 minutes, with the page automatically refreshed every 10 minutes)

About weather observations | Map of weather stations | Latest weather observations for SA | Other Formats
Station Details ID: 023887 Name: KUITPO FOREST RESERVE Lat: -35.17 Lon: 138.68 Height: 365.0 m
Data from the previous 72 hours. | See also: Recent months at Kuitpo
Date/Time
CDT
Temp
°C
App
Temp
°C
Dew
Point
Rel
Hum
%
Delta-T
°C
Wind Press
QNH
hPa
Press
MSL
hPa
Rain
since 9 am
mm
Dir
 
Spd
km/h
Gust
km/h
Spd
kts
Gust
kts
01/09:00am 13.1 11.2 13.1 100 0.0 SE 15 30 8 16 1016.9 1015.5 0.4
01/08:30am 12.2 9.7 12.2 100 0.0 SE 17 28 9 15 1016.7 1015.3 0.4
01/08:00am 11.8 9.1 11.8 100 0.0 SE 17 32 9 17 1016.3 1014.9 0.4
01/07:30am 11.5 8.4 11.5 100 0.0 SE 19 33 10 18 1015.9 1014.6 0.4
01/07:00am 11.4 8.6 11.4 100 0.0 SSE 17 32 9 17 1015.6 1014.3 0.2
01/06:30am 11.5 8.7 11.5 100 0.0 SSE 17 28 9 15 1015.5 1014.2 0.2
01/06:00am 11.5 9.5 11.5 100 0.0 SE 13 24 7 13 1015.2 1013.9 0.0
01/05:30am 11.5 9.5 11.5 100 0.0 SSE 13 20 7 11 1015.2 1013.9 0.0
01/05:00am 11.6 9.9 11.3 98 0.2 SSE 11 20 6 11 1015.2 1013.9 0.0
01/04:30am 11.7 8.6 11.5 99 0.1 SE 19 32 10 17 1015.0 1013.6 0.0
01/04:00am 11.6 8.2 11.1 97 0.3 SE 20 33 11 18 1015.1 1013.8 0.0
01/03:30am 11.8 8.7 10.4 91 0.7 SE 17 24 9 13 1015.2 1013.9 0.0
01/03:00am 12.3 9.0 9.7 84 1.3 SE 17 35 9 19 1015.5 1014.2 0.0
01/02:30am 12.5 8.9 9.9 84 1.4 SSE 19 32 10 17 1015.7 1014.4 0.0
01/02:00am 12.6 9.8 10.0 84 1.4 SSE 15 24 8 13 1015.8 1014.5 0.0
01/01:30am 12.6 8.9 10.0 84 1.4 SSE 20 33 11 18 1016.0 1014.7 0.0
01/01:00am 12.5 9.3 9.9 84 1.4 SSE 17 32 9 17 1016.3 1014.9 0.0
01/12:30am 12.6 9.4 10.0 84 1.4 SSE 17 30 9 16 1016.2 1014.8 0.0
01/12:00am 12.6 9.4 10.0 84 1.4 SSE 17 26 9 14 1016.2 1014.8 0.0
 
Date/Time
CDT
Temp
°C
App
Temp
°C
Dew
Point
Rel
Hum
%
Delta-T
°C
Wind Press
QNH
hPa
Press
MSL
hPa
Rain
since 9 am
mm
Dir
 
Spd
km/h
Gust
km/h
Spd
kts
Gust
kts
31/11:30pm 12.7 9.0 10.2 85 1.3 SSE 20 37 11 20 1016.3 1014.9 0.0
31/11:00pm 12.6 8.9 10.3 86 1.2 SE 20 39 11 21 1016.2 1014.8 0.0
31/10:30pm 12.6 9.1 10.3 86 1.2 SE 19 32 10 17 1016.0 1014.7 0.0
31/10:00pm 12.6 9.4 10.0 84 1.4 SSE 17 35 9 19 1015.9 1014.6 0.0
31/09:30pm 12.8 8.7 10.0 83 1.5 SSE 22 37 12 20 1015.7 1014.4 0.0
31/09:00pm 13.0 8.5 10.0 82 1.6 SSE 24 39 13 21 1015.3 1014.0 0.0
31/08:30pm 13.4 9.8 9.8 79 1.9 SSE 19 37 10 20 1015.2 1013.9 0.0
31/08:00pm 13.8 9.9 9.6 76 2.2 SSE 20 43 11 23 1015.1 1013.8 0.0
31/07:30pm 14.1 10.3 9.7 75 2.3 SSE 20 35 11 19 1015.1 1013.8 0.0
31/07:00pm 14.5 11.4 10.3 76 2.2 SSE 17 30 9 16 1015.2 1013.9 0.0
31/06:30pm 14.7 11.0 10.3 75 2.3 SSE 20 37 11 20 1015.0 1013.6 0.0
31/06:00pm 15.1 11.0 10.1 72 2.7 SSE 22 41 12 22 1014.7 1013.3 0.0
31/05:30pm 16.0 12.9 10.3 69 3.1 SSE 17 39 9 21 1014.6 1013.2 0.0
31/05:00pm 15.9 11.5 9.1 64 3.6 S 22 43 12 23 1014.7 1013.3 0.0
31/04:30pm 17.3 14.0 9.5 60 4.2 SSE 17 37 9 20 1014.8 1013.4 0.0
31/04:00pm 16.8 12.4 8.8 59 4.2 SSE 22 33 12 18 1014.9 1013.5 0.0
31/03:30pm 17.1 12.5 8.3 56 4.6 SSE 22 37 12 20 1015.0 1013.6 0.0
31/03:00pm 18.1 14.8 9.5 57 4.6 S 17 33 9 18 1014.9 1013.5 0.0
31/02:30pm 16.8 13.1 9.5 62 3.9 SE 19 32 10 17 1014.9 1013.5 0.0
31/02:00pm 16.9 13.2 10.1 64 3.7 SE 20 39 11 21 1014.7 1013.3 0.0
31/01:30pm 17.7 14.0 10.1 61 4.1 SE 20 35 11 19 1014.8 1013.4 0.0
31/01:00pm 18.1 14.2 8.7 54 5.0 SE 19 30 10 16 1015.0 1013.6 0.0
31/12:30pm 17.8 14.0 8.9 56 4.7 SE 19 37 10 20 1015.5 1014.2 0.0
31/12:00pm 16.2 12.2 8.9 62 3.8 SE 20 30 11 16 1015.7 1014.4 0.0
31/11:30am 16.1 12.2 8.6 61 3.9 SE 19 30 10 16 1015.9 1014.6 0.0
31/11:00am 15.9 11.8 7.9 59 4.1 SE 19 33 10 18 1015.9 1014.6 0.0
31/10:30am 15.3 9.5 7.8 61 3.8 ESE 28 43 15 23 1015.7 1014.4 0.0
31/10:00am 16.1 11.4 7.8 58 4.2 ESE 22 35 12 19 1015.7 1014.4 0.0
31/09:30am 15.4 10.4 7.9 61 3.8 ESE 24 41 13 22 1015.6 1014.3 0.0
31/09:00am 14.9 9.8 9.1 68 3.0 ESE 26 43 14 23 1015.6 1014.3 0.0
31/08:30am 13.9 9.5 9.1 73 2.5 E 22 35 12 19 1015.6 1014.3 0.0
31/08:00am 12.9 9.0 9.5 80 1.8 ESE 20 30 11 16 1015.0 1013.6 0.0
31/07:30am 11.9 7.3 9.8 87 1.1 E 24 33 13 18 1014.5 1013.1 0.0
31/07:00am 11.0 6.8 9.6 91 0.7 E 22 33 12 18 1014.5 1013.1 0.0
31/06:30am 11.0 6.0 9.6 91 0.7 E 26 35 14 19 1014.3 1012.9 0.0
31/06:00am 11.0 6.1 9.8 92 0.6 E 26 37 14 20 1014.2 1012.8 0.0
31/05:30am 11.1 6.5 9.5 90 0.8 ESE 24 39 13 21 1013.8 1012.4 0.0
31/05:00am 11.3 6.4 9.9 91 0.7 ESE 26 37 14 20 1013.9 1012.5 0.0
31/04:30am 11.3 5.8 9.2 87 1.1 ESE 28 43 15 23 1013.4 1012.0 0.0
31/04:00am 11.6 6.0 8.8 83 1.4 ESE 28 48 15 26 1013.4 1012.0 0.0
31/03:40am 11.5 5.8 8.5 82 1.5 ESE 28 46 15 25 1013.1 1011.8 0.0
31/03:30am 11.7 5.7 8.6 81 1.6 SE 30 44 16 24 1013.2 1011.9 0.0
31/03:00am 12.0 6.6 9.4 84 1.3 SE 28 41 15 22 1013.6 1012.2 0.0
31/02:30am 12.3 7.3 11.0 92 0.7 SE 28 39 15 21 1013.6 1012.2 0.0
31/02:00am 12.4 8.6 11.3 93 0.6 SE 22 41 12 22 1013.7 1012.3 0.0
31/01:30am 12.4 8.3 11.6 95 0.4 SE 24 39 13 21 1013.9 1012.5 0.0
31/01:00am 12.5 8.2 12.0 97 0.3 SE 26 39 14 21 1013.7 1012.3 0.0
31/12:30am 12.4 8.0 11.6 95 0.4 SE 26 41 14 22 1013.8 1012.4 0.0
31/12:00am 12.4 9.1 11.5 94 0.5 SE 20 32 11 17 1014.0 1012.6 0.0
 
Date/Time
CDT
Temp
°C
App
Temp
°C
Dew
Point
Rel
Hum
%
Delta-T
°C
Wind Press
QNH
hPa
Press
MSL
hPa
Rain
since 9 am
mm
Dir
 
Spd
km/h
Gust
km/h
Spd
kts
Gust
kts
30/11:30pm 12.6 7.8 11.5 93 0.6 SE 28 41 15 22 1014.0 1012.6 0.0
30/11:00pm 12.7 7.8 11.3 91 0.8 SE 28 39 15 21 1014.2 1012.8 0.0
30/10:30pm 13.0 8.4 11.2 89 1.0 SE 26 43 14 23 1014.4 1013.0 0.0
30/10:00pm 13.1 8.5 11.2 88 1.0 SE 26 44 14 24 1014.4 1013.0 0.0
30/09:32pm 13.3 8.3 11.0 86 1.2 SSE 28 46 15 25 1014.3 1012.9 0.0
30/09:30pm 13.3 8.3 11.0 86 1.2 SSE 28 44 15 24 1014.2 1012.8 0.0
30/09:00pm 13.4 9.4 10.6 83 1.5 SE 22 32 12 17 1014.2 1012.8 0.0
30/08:30pm 13.6 8.4 10.2 80 1.8 SE 28 44 15 24 1013.8 1012.4 0.0
30/08:14pm 13.9 8.6 9.9 77 2.1 SSE 28 46 15 25 1013.6 1012.2 0.0
30/08:00pm 14.3 9.6 9.3 72 2.6 SSE 24 43 13 23 1013.6 1012.2 0.0
30/07:30pm 15.3 10.1 9.0 66 3.3 SSE 26 43 14 23 1013.5 1012.1 0.0
30/07:00pm 16.7 12.7 8.1 57 4.4 SSE 19 37 10 20 1013.6 1012.2 0.0
30/06:30pm 17.5 13.3 7.5 52 5.1 SSE 19 30 10 16 1013.4 1012.0 0.0
30/06:00pm 18.6 14.8 7.7 49 5.7 SSE 17 30 9 16 1013.5 1012.1 0.0
30/05:30pm 19.2 15.5 7.9 48 5.9 SSE 17 30 9 16 1013.7 1012.3 0.0
30/05:00pm 20.0 15.9 8.0 46 6.3 SSE 19 30 10 16 1013.8 1012.4 0.0
30/04:30pm 21.4 17.2 7.6 41 7.3 SE 19 35 10 19 1013.9 1012.5 0.0
30/04:00pm 21.1 16.8 7.0 40 7.3 SE 19 32 10 17 1014.0 1012.6 0.0
30/03:30pm 21.4 16.9 6.1 37 7.8 SE 19 30 10 16 1014.1 1012.7 0.0
30/03:00pm 21.7 16.8 4.3 32 8.6 SE 19 30 10 16 1014.4 1013.0 0.0
30/02:30pm 21.7 17.4 6.8 38 7.7 SE 19 33 10 18 1014.6 1013.2 0.0
30/02:00pm 21.3 17.5 7.5 41 7.3 SE 17 30 9 16 1015.0 1013.6 0.0
30/01:30pm 22.3 17.9 7.3 38 7.9 ESE 20 32 11 17 1015.1 1013.8 0.0
30/01:00pm 20.7 15.8 5.1 36 7.8 SE 20 35 11 19 1015.4 1014.1 0.0
30/12:30pm 20.7 16.2 6.3 39 7.4 SE 19 30 10 16 1015.8 1014.5 0.0
30/12:00pm 20.2 15.6 6.5 41 7.0 ESE 20 33 11 18 1016.0 1014.7 0.0
30/11:30am 19.3 14.8 7.1 45 6.3 ESE 20 33 11 18 1016.3 1014.9 0.0
30/11:00am 18.5 14.1 7.3 48 5.8 E 20 35 11 19 1016.4 1015.0 0.0
30/10:30am 17.5 12.9 8.1 54 4.9 ENE 22 32 12 17 1016.3 1014.9 0.0
30/10:00am 15.9 10.6 8.4 61 3.9 E 26 35 14 19 1016.6 1015.2 0.0
30/09:30am 15.7 10.0 8.4 62 3.8 E 28 39 15 21 1016.6 1015.2 0.0
30/09:00am 14.5 8.8 8.5 67 3.1 E 28 39 15 21 1016.5 1015.1 0.0
30/08:30am 13.7 8.4 8.5 71 2.7 ESE 26 35 14 19 1016.3 1014.9 0.0
30/08:00am 12.8 7.1 8.5 75 2.2 ESE 28 39 15 21 1016.0 1014.7 0.0
30/07:30am 12.0 7.0 8.1 77 2.0 ESE 24 33 13 18 1015.8 1014.5 0.0
30/07:00am 11.5 6.0 7.4 76 2.0 ESE 26 35 14 19 1015.5 1014.2 0.0
30/06:30am 11.5 5.9 7.2 75 2.1 ESE 26 35 14 19 1015.3 1014.0 0.0
30/06:00am 11.5 5.9 7.0 74 2.2 ESE 26 33 14 18 1015.2 1013.9 0.0
30/05:30am 11.7 6.8 6.8 72 2.4 ESE 22 30 12 16 1015.2 1013.9 0.0
30/05:00am 12.2 7.0 7.1 71 2.5 ESE 24 33 13 18 1015.1 1013.8 0.0
30/04:30am 12.4 8.0 7.3 71 2.5 SE 20 28 11 15 1015.1 1013.8 0.0
30/04:00am 13.1 8.3 7.5 69 2.8 SE 22 33 12 18 1015.2 1013.9 0.0
30/03:30am 13.4 8.8 8.3 71 2.6 SE 22 30 12 16 1015.3 1014.0 0.0
30/03:00am 13.6 9.5 10.0 79 1.9 SE 22 28 12 15 1015.3 1014.0 0.0
30/02:30am 14.1 10.7 11.1 82 1.6 SE 20 28 11 15 1015.5 1014.2 0.0
30/02:00am 14.5 11.5 12.0 85 1.4 SE 19 26 10 14 1015.5 1014.2 0.0
30/01:30am 14.7 12.2 13.6 93 0.6 SE 19 26 10 14 1015.3 1014.0 0.0
30/01:00am 14.6 12.4 14.3 98 0.2 SE 19 28 10 15 1015.2 1013.9 0.0
30/12:30am 14.7 12.6 14.7 100 0.0 SE 19 32 10 17 1015.0 1013.6 0.0
30/12:00am 14.7 12.6 14.7 100 0.0 SE 19 33 10 18 1015.3 1014.0 0.0
 
Date/Time
CDT
Temp
°C
App
Temp
°C
Dew
Point
Rel
Hum
%
Delta-T
°C
Wind Press
QNH
hPa
Press
MSL
hPa
Rain
since 9 am
mm
Dir
 
Spd
km/h
Gust
km/h
Spd
kts
Gust
kts
29/11:30pm 14.7 12.4 14.7 100 0.0 SE 20 30 11 16 1015.3 1014.0 0.0
29/11:00pm 14.7 12.6 14.7 100 0.0 SE 19 30 10 16 1015.5 1014.2 0.0
29/10:30pm 14.6 12.5 14.6 100 0.0 SE 19 28 10 15 1015.8 1014.5 0.0
29/10:00pm 14.6 12.9 14.6 100 0.0 SE 17 28 9 15 1016.0 1014.7 0.0
29/09:30pm 14.7 12.4 14.2 97 0.3 SE 19 30 10 16 1015.8 1014.5 0.0
29/09:00pm 15.0 12.4 13.7 92 0.7 SE 20 32 11 17 1015.6 1014.3 0.0
29/08:30pm 15.5 12.7 13.2 86 1.3 SE 20 35 11 19 1015.7 1014.4 0.0
29/08:00pm 16.5 13.1 12.5 77 2.2 SE 22 39 12 21 1015.6 1014.3 0.0
29/07:30pm 17.4 14.3 11.7 69 3.2 SE 19 33 10 18 1015.4 1014.1 0.0
29/07:00pm 18.6 15.2 11.4 63 4.0 SE 20 37 11 20 1015.0 1013.6 0.0
29/06:30pm 19.8 16.6 11.3 58 4.7 SSE 19 28 10 15 1015.0 1013.6 0.0
29/06:00pm 20.8 17.1 10.3 51 5.8 SSE 20 39 11 21 1015.1 1013.8 0.0
29/05:30pm 22.0 18.1 8.5 42 7.3 SE 19 32 10 17 1015.1 1013.8 0.0
29/05:00pm 21.9 17.2 7.7 40 7.5 SE 22 41 12 22 1015.2 1013.9 0.0
29/04:30pm 22.7 17.9 8.8 41 7.5 SE 24 39 13 21 1015.2 1013.9 0.0
29/04:13pm 22.7 17.0 8.4 40 7.7 SE 28 46 15 25 1015.4 1014.1 0.0
29/04:00pm 23.3 17.3 5.2 31 9.2 SE 26 43 14 23 1015.5 1014.2 0.0
29/03:30pm 23.9 17.2 3.8 27 10.0 ESE 28 48 15 26 1015.7 1014.4 0.0
29/03:04pm 23.9 16.6 2.7 25 10.4 ESE 30 50 16 27 1015.7 1014.4 0.0
29/03:00pm 24.1 17.3 2.9 25 10.4 ESE 28 44 15 24 1015.9 1014.6 0.0
29/02:30pm 23.6 16.6 1.9 24 10.4 E 28 41 15 22 1016.3 1014.9 0.0
29/02:00pm 23.3 15.8 1.0 23 10.5 ESE 30 54 16 29 1016.5 1015.1 0.0
29/01:56pm 23.8 16.7 1.4 23 10.7 ESE 28 46 15 25 1016.5 1015.1 0.0
29/01:30pm 22.6 15.8 3.2 28 9.5 ESE 28 41 15 22 1016.8 1015.4 0.0
29/01:09pm 22.8 16.1 3.4 28 9.5 ESE 28 46 15 25 1016.9 1015.5 0.0
29/01:00pm 22.6 16.5 4.6 31 9.0 E 26 41 14 22 1017.1 1015.7 0.0
29/12:30pm 22.5 16.4 5.0 32 8.8 E 26 41 14 22 1017.2 1015.8 0.0
29/12:27pm 22.4 15.9 4.5 31 9.0 E 28 46 15 25 1017.3 1015.9 0.0
29/12:00pm 20.8 14.6 6.0 38 7.5 E 28 39 15 21 1017.4 1016.0 0.0
29/11:30am 19.7 13.6 6.8 43 6.6 E 28 39 15 21 1017.6 1016.3 0.0
29/11:00am 19.3 14.2 7.7 47 6.0 E 24 35 13 19 1017.7 1016.4 0.0
29/10:30am 18.1 12.1 6.9 48 5.7 E 28 43 15 23 1017.7 1016.4 0.0
29/10:00am 17.1 11.9 7.2 52 5.0 E 24 35 13 19 1017.4 1016.0 0.0
29/09:40am 16.7 10.8 7.6 55 4.7 E 28 46 15 25 1017.4 1016.0 0.0
29/09:30am 16.0 9.7 7.5 57 4.3 E 30 44 16 24 1017.3 1015.9 0.0

Other Formats:

Comma delimited format used in spreadsheet applications
http://www.bom.gov.au/fwo/IDS60801/IDS60801.94683.axf

JavaScript Object Notation format (JSON) in row-major order
http://www.bom.gov.au/fwo/IDS60801/IDS60801.94683.json